EJU78NK LFPO-EGHI
Flight info
| Callsign | EJU78NK |
|---|---|
| Flight time | N/A |
| Altitude | 26000 |
| Route | OPALE DCT KESAX DCT KUNAV N20 ELDAX |
| Aircraft | A320/M-SDE2E3FGHIJ1RWXYZ/LB1 |
Departure
| Time | 2026-04-30 15:03 |
|---|---|
| Airport | Paris-Orly Airport (LFPO) |
Arrival
| Time | N/A |
|---|---|
| Airport | Southampton Airport (EGHI) |
| Time | Latitude | Longitude | Altitude | Speed | Heading |
|---|---|---|---|---|---|
| 2026-04-30 14:40 | 48.72396 | 2.36512 | 290 ft | 0 kts | 199° |
| 2026-04-30 14:44 | 48.72398 | 2.36513 | 290 ft | 0 kts | 199° |
| 2026-04-30 14:55 | 48.72406 | 2.36517 | 294 ft | 4 kts | 198° |
| 2026-04-30 14:55 | 48.72431 | 2.36530 | 292 ft | 4 kts | 198° |
| 2026-04-30 14:55 | 48.72480 | 2.36562 | 292 ft | 4 kts | 230° |
| 2026-04-30 14:56 | 48.72492 | 2.36612 | 294 ft | 0 kts | 255° |
| 2026-04-30 14:58 | 48.72477 | 2.36517 | 293 ft | 11 kts | 269° |
| 2026-04-30 14:58 | 48.72464 | 2.36448 | 290 ft | 6 kts | 250° |
| 2026-04-30 14:58 | 48.72436 | 2.36301 | 291 ft | 11 kts | 255° |
| 2026-04-30 14:59 | 48.72363 | 2.35906 | 289 ft | 19 kts | 254° |
| 2026-04-30 15:00 | 48.72128 | 2.35641 | 288 ft | 17 kts | 165° |
| 2026-04-30 15:00 | 48.72080 | 2.35671 | 288 ft | 0 kts | 149° |
| 2026-04-30 15:01 | 48.72010 | 2.35802 | 293 ft | 17 kts | 118° |
| 2026-04-30 15:02 | 48.71964 | 2.35977 | 289 ft | 18 kts | 87° |
| 2026-04-30 15:02 | 48.72000 | 2.36193 | 294 ft | 33 kts | 76° |
| 2026-04-30 15:03 | 48.72647 | 2.39742 | 888 ft | 154 kts | 77° |
| 2026-04-30 15:03 | 48.73243 | 2.43028 | 1983 ft | 178 kts | 77° |
| 2026-04-30 15:04 | 48.73978 | 2.47150 | 2785 ft | 227 kts | 83° |
| 2026-04-30 15:04 | 48.74265 | 2.54874 | 5107 ft | 256 kts | 92° |
| 2026-04-30 15:05 | 48.70905 | 2.59912 | 7415 ft | 270 kts | 187° |
| 2026-04-30 15:06 | 48.68126 | 2.56278 | 9063 ft | 288 kts | 248° |
| 2026-04-30 15:06 | 48.67477 | 2.50168 | 10522 ft | 308 kts | 261° |
| 2026-04-30 15:07 | 48.67024 | 2.44490 | 11156 ft | 336 kts | 259° |
| 2026-04-30 15:07 | 48.65848 | 2.37556 | 12517 ft | 345 kts | 247° |
| 2026-04-30 15:08 | 48.65191 | 2.30278 | 13903 ft | 362 kts | 274° |
| 2026-04-30 15:08 | 48.68185 | 2.19614 | 15858 ft | 375 kts | 299° |
| 2026-04-30 15:09 | 48.70738 | 2.12646 | 17141 ft | 383 kts | 298° |
| 2026-04-30 15:09 | 48.73988 | 2.06238 | 18367 ft | 390 kts | 323° |
| 2026-04-30 15:10 | 48.78898 | 2.02876 | 19418 ft | 391 kts | 353° |
| 2026-04-30 15:11 | 48.89738 | 2.04323 | 21621 ft | 398 kts | 11° |
| 2026-04-30 15:11 | 48.95264 | 2.05439 | 22702 ft | 404 kts | 11° |
| 2026-04-30 15:12 | 49.03718 | 2.07154 | 24204 ft | 413 kts | 12° |
| 2026-04-30 15:13 | 49.09450 | 2.08312 | 25078 ft | 418 kts | 12° |
| 2026-04-30 15:14 | 49.21055 | 2.10687 | 26137 ft | 410 kts | 11° |
| 2026-04-30 15:14 | 49.29355 | 2.12377 | 26156 ft | 398 kts | 12° |
| 2026-04-30 15:16 | 49.43147 | 2.14663 | 26166 ft | 404 kts | 358° |
| 2026-04-30 15:17 | 49.53940 | 2.09408 | 26153 ft | 411 kts | 342° |
| 2026-04-30 15:18 | 49.67316 | 2.01696 | 26152 ft | 411 kts | 342° |
| 2026-04-30 15:19 | 49.75341 | 1.97044 | 26143 ft | 411 kts | 342° |